Time;durP1;ratioP1;P1;durP2;ratioP2;P2;SDS_P1;SDS_P2;PMS_P1;PMS_P2;Temp;Humidity;BMP_temperature;BMP_pressure;BME280_temperature;BME280_humidity;BME280_pressure;Samples;Min_cycle;Max_cycle;Signal;HPM_P1;HPM_P2
2023/07/05 00:01:37;;;;;;;;;;;24.90;48.00;;;;;;1617389;71;738;-58
2023/07/05 00:03:39;;;;;;;;;;;24.90;48.10;;;;;;1626164;71;1944;-57
2023/07/05 00:05:41;;;;;;;;;;;24.80;48.20;;;;;;1625177;71;1502;-58
2023/07/05 00:07:42;;;;;;;;;;;24.90;48.00;;;;;;1625452;71;786;-58
2023/07/05 00:09:44;;;;;;;;;;;24.90;48.10;;;;;;1624945;71;1112;-58
2023/07/05 00:11:47;;;;;;;;;;;24.90;48.00;;;;;;1625343;71;793;-58
2023/07/05 00:13:49;;;;;;;;;;;24.90;48.10;;;;;;1623083;71;792;-58
2023/07/05 00:15:51;;;;;;;;;;;25.00;48.30;;;;;;1636323;71;776;-58
2023/07/05 00:17:53;;;;;;;;;;;25.00;48.10;;;;;;1632834;71;733;-58
2023/07/05 00:19:54;;;;;;;;;;;25.00;48.20;;;;;;1615780;71;1594;-59
2023/07/05 00:21:56;;;;;;;;;;;24.90;48.20;;;;;;1634100;71;713;-58
2023/07/05 00:23:58;;;;;;;;;;;24.90;48.30;;;;;;1651908;71;1938;-59
2023/07/05 00:26:00;;;;;;;;;;;24.90;48.20;;;;;;1618877;71;660;-59
2023/07/05 00:28:03;;;;;;;;;;;24.90;48.30;;;;;;1627803;71;1105;-58
2023/07/05 00:30:05;;;;;;;;;;;24.80;48.20;;;;;;1628514;71;839;-59
2023/07/05 00:32:08;;;;;;;;;;;24.90;48.10;;;;;;1620425;71;723;-59
2023/07/05 00:34:09;;;;;;;;;;;24.90;48.30;;;;;;1656659;71;1502;-59
2023/07/05 00:36:12;;;;;;;;;;;24.90;48.30;;;;;;1640250;71;834;-59
2023/07/05 00:38:14;;;;;;;;;;;24.90;48.20;;;;;;1644436;70;1221;-58
2023/07/05 00:40:16;;;;;;;;;;;24.90;48.10;;;;;;1650709;71;790;-58
2023/07/05 00:42:18;;;;;;;;;;;25.00;48.00;;;;;;1636579;71;764;-59
2023/07/05 00:44:20;;;;;;;;;;;25.00;47.90;;;;;;1630504;71;1931;-59
2023/07/05 00:46:26;;;;;;;;;;;24.90;48.00;;;;;;1619325;71;1453;-58
2023/07/05 00:48:29;;;;;;;;;;;25.00;48.00;;;;;;1622391;70;1143;-57
2023/07/05 00:50:33;;;;;;;;;;;24.90;48.20;;;;;;1646454;71;1789;-57
2023/07/05 00:52:35;;;;;;;;;;;24.90;48.20;;;;;;1621255;71;1926;-58
2023/07/05 00:54:38;;;;;;;;;;;24.90;48.20;;;;;;1643067;71;728;-58
2023/07/05 00:56:47;;;;;;;;;;;24.80;48.20;;;;;;1638038;71;697;-58
2023/07/05 00:58:50;;;;;;;;;;;24.80;48.20;;;;;;1622746;71;1170;-58
2023/07/05 01:00:52;;;;;;;;;;;24.90;48.40;;;;;;1628527;71;1308;-58
2023/07/05 01:02:55;;;;;;;;;;;24.80;48.40;;;;;;1632159;71;802;-58
2023/07/05 01:04:57;;;;;;;;;;;24.90;48.40;;;;;;1635387;71;1939;-58
2023/07/05 01:06:59;;;;;;;;;;;24.90;48.30;;;;;;1628719;71;629;-58
2023/07/05 01:09:01;;;;;;;;;;;24.80;48.40;;;;;;1607648;71;1146;-58
2023/07/05 01:11:18;;;;;;;;;;;24.90;48.30;;;;;;1634937;71;797;-58
2023/07/05 01:13:33;;;;;;;;;;;24.90;48.40;;;;;;1627518;71;1920;-61
2023/07/05 01:20:26;;;;;;;;;;;24.90;48.40;;;;;;1626116;71;1102;-59
2023/07/05 01:22:33;;;;;;;;;;;25.00;48.20;;;;;;1633328;71;702;-59
2023/07/05 01:24:45;;;;;;;;;;;25.00;48.10;;;;;;1618180;71;1932;-59
2023/07/05 01:27:00;;;;;;;;;;;25.00;48.00;;;;;;1636282;71;1540;-59
2023/07/05 01:29:20;;;;;;;;;;;25.00;48.00;;;;;;1634718;70;1598;-61
2023/07/05 01:31:38;;;;;;;;;;;25.00;48.00;;;;;;1638917;71;737;-60
2023/07/05 01:33:44;;;;;;;;;;;25.00;48.00;;;;;;1600779;71;1085;-59
2023/07/05 01:35:48;;;;;;;;;;;25.00;48.00;;;;;;1622469;71;1906;-59
2023/07/05 01:37:50;;;;;;;;;;;25.00;48.00;;;;;;1614407;71;686;-59
2023/07/05 01:39:52;;;;;;;;;;;25.00;48.00;;;;;;1635517;71;1239;-60
2023/07/05 01:41:53;;;;;;;;;;;25.00;48.00;;;;;;1642738;71;756;-59
2023/07/05 01:43:55;;;;;;;;;;;25.00;47.90;;;;;;1614864;71;1616;-60
2023/07/05 01:45:59;;;;;;;;;;;25.00;47.80;;;;;;1610519;71;1927;-60
2023/07/05 01:48:03;;;;;;;;;;;25.00;47.70;;;;;;1642314;71;689;-61
2023/07/05 01:50:21;;;;;;;;;;;25.10;47.70;;;;;;1634624;71;1655;-60
2023/07/05 01:52:27;;;;;;;;;;;25.10;47.60;;;;;;1635857;71;755;-58
2023/07/05 01:54:37;;;;;;;;;;;25.10;47.60;;;;;;1624889;71;712;-59
2023/07/05 01:56:47;;;;;;;;;;;25.00;47.70;;;;;;1618258;71;2124;-59
2023/07/05 01:58:49;;;;;;;;;;;25.00;48.10;;;;;;1617224;71;2028;-59
2023/07/05 02:00:51;;;;;;;;;;;25.00;47.90;;;;;;1633390;71;774;-59
2023/07/05 02:02:55;;;;;;;;;;;25.00;48.00;;;;;;1641736;71;742;-60
2023/07/05 02:04:57;;;;;;;;;;;25.00;47.90;;;;;;1631512;71;1909;-60
2023/07/05 02:06:59;;;;;;;;;;;25.00;47.90;;;;;;1617684;71;552;-59
2023/07/05 02:09:01;;;;;;;;;;;25.00;47.90;;;;;;1610193;71;1127;-59
2023/07/05 02:11:02;;;;;;;;;;;25.00;48.00;;;;;;1635402;71;1471;-60
2023/07/05 02:13:12;;;;;;;;;;;25.00;47.80;;;;;;1637641;71;747;-59
2023/07/05 02:15:10;;;;;;;;;;;25.00;47.80;;;;;;1626428;71;1654;-59
2023/07/05 02:17:11;;;;;;;;;;;25.00;47.70;;;;;;1626523;71;764;-58
2023/07/05 02:19:13;;;;;;;;;;;25.00;47.70;;;;;;1635266;71;1162;-59
2023/07/05 02:21:15;;;;;;;;;;;25.00;47.80;;;;;;1619526;71;822;-59
2023/07/05 02:23:18;;;;;;;;;;;25.00;47.80;;;;;;1627075;71;728;-58
2023/07/05 02:25:20;;;;;;;;;;;25.10;48.00;;;;;;1622856;71;1916;-59
2023/07/05 02:27:22;;;;;;;;;;;25.00;48.10;;;;;;1614819;71;763;-60
2023/07/05 02:29:24;;;;;;;;;;;25.00;48.20;;;;;;1629648;71;1125;-59
2023/07/05 02:31:26;;;;;;;;;;;25.00;48.20;;;;;;1613255;71;756;-59
2023/07/05 02:33:28;;;;;;;;;;;25.00;48.10;;;;;;1620457;71;712;-59
2023/07/05 02:35:30;;;;;;;;;;;25.00;48.00;;;;;;1644381;71;691;-58
2023/07/05 02:37:32;;;;;;;;;;;25.00;48.00;;;;;;1622349;71;785;-59
2023/07/05 02:39:34;;;;;;;;;;;25.00;48.20;;;;;;1620031;71;1315;-61
2023/07/05 02:41:36;;;;;;;;;;;25.00;48.20;;;;;;1634781;71;756;-59
2023/07/05 02:43:38;;;;;;;;;;;25.00;48.30;;;;;;1654865;71;753;-60
2023/07/05 02:45:40;;;;;;;;;;;25.00;48.20;;;;;;1632889;71;1928;-58
2023/07/05 02:47:42;;;;;;;;;;;25.10;48.10;;;;;;1609834;71;782;-59
2023/07/05 02:49:43;;;;;;;;;;;25.00;48.20;;;;;;1634534;71;1138;-59
2023/07/05 02:51:45;;;;;;;;;;;25.00;48.10;;;;;;1645962;71;720;-59
2023/07/05 02:53:47;;;;;;;;;;;25.00;48.20;;;;;;1625616;71;1325;-59
2023/07/05 02:55:50;;;;;;;;;;;25.00;48.00;;;;;;1624739;71;706;-59
2023/07/05 02:57:52;;;;;;;;;;;25.00;47.90;;;;;;1637931;71;745;-59
2023/07/05 02:59:54;;;;;;;;;;;25.00;48.00;;;;;;1625976;71;1136;-60
2023/07/05 03:01:58;;;;;;;;;;;25.00;47.90;;;;;;1615171;71;756;-59
2023/07/05 03:03:59;;;;;;;;;;;25.00;48.00;;;;;;1642893;71;2077;-59
2023/07/05 03:06:01;;;;;;;;;;;25.00;48.00;;;;;;1637409;71;1940;-59
2023/07/05 03:08:03;;;;;;;;;;;25.00;48.10;;;;;;1631121;71;1565;-58
2023/07/05 03:10:07;;;;;;;;;;;25.00;48.10;;;;;;1636293;71;770;-59
2023/07/05 03:12:09;;;;;;;;;;;25.00;48.00;;;;;;1617065;71;710;-59
2023/07/05 03:14:11;;;;;;;;;;;25.00;47.90;;;;;;1633414;71;837;-60
2023/07/05 03:16:13;;;;;;;;;;;25.00;47.80;;;;;;1613921;71;758;-58
2023/07/05 03:18:15;;;;;;;;;;;25.10;47.60;;;;;;1618300;71;1119;-59
2023/07/05 03:20:17;;;;;;;;;;;25.10;47.40;;;;;;1616183;71;786;-59
2023/07/05 03:22:19;;;;;;;;;;;25.10;47.30;;;;;;1634898;71;1508;-58
2023/07/05 03:24:20;;;;;;;;;;;25.10;47.30;;;;;;1625035;71;793;-59
2023/07/05 03:26:22;;;;;;;;;;;25.20;47.20;;;;;;1652174;71;2194;-59
2023/07/05 03:28:25;;;;;;;;;;;25.10;47.10;;;;;;1623794;71;1273;-58
2023/07/05 03:30:27;;;;;;;;;;;25.20;47.10;;;;;;1629830;71;748;-58
2023/07/05 03:32:29;;;;;;;;;;;25.10;47.20;;;;;;1632941;71;735;-59
2023/07/05 03:34:31;;;;;;;;;;;25.10;47.20;;;;;;1628192;71;702;-59
2023/07/05 03:36:33;;;;;;;;;;;25.10;47.30;;;;;;1635757;71;1419;-59
2023/07/05 03:38:35;;;;;;;;;;;25.20;47.30;;;;;;1638572;70;1147;-59
2023/07/05 03:40:37;;;;;;;;;;;25.10;47.20;;;;;;1641895;71;723;-58
2023/07/05 03:42:38;;;;;;;;;;;25.10;47.40;;;;;;1617410;71;696;-59
2023/07/05 03:44:40;;;;;;;;;;;25.10;47.50;;;;;;1636313;71;789;-59
2023/07/05 03:46:43;;;;;;;;;;;25.00;47.50;;;;;;1625409;71;1922;-60
2023/07/05 03:48:45;;;;;;;;;;;25.10;47.80;;;;;;1613890;71;1158;-60
2023/07/05 03:50:47;;;;;;;;;;;25.00;48.10;;;;;;1614410;71;1587;-58
2023/07/05 03:52:49;;;;;;;;;;;25.00;48.20;;;;;;1623106;71;784;-58
2023/07/05 03:54:51;;;;;;;;;;;25.00;48.20;;;;;;1622741;71;666;-59
2023/07/05 03:56:53;;;;;;;;;;;25.00;48.20;;;;;;1629917;71;791;-59
2023/07/05 03:58:54;;;;;;;;;;;25.00;48.20;;;;;;1618669;70;1178;-59
2023/07/05 04:01:04;;;;;;;;;;;25.00;48.10;;;;;;1633361;71;840;-59
2023/07/05 04:03:06;;;;;;;;;;;25.00;48.10;;;;;;1609717;71;1649;-59
2023/07/05 04:05:08;;;;;;;;;;;25.00;48.30;;;;;;1623252;71;1934;-58
2023/07/05 04:07:09;;;;;;;;;;;24.90;48.50;;;;;;1634191;71;669;-58
2023/07/05 04:09:11;;;;;;;;;;;24.90;48.40;;;;;;1643570;70;1137;-59
2023/07/05 04:11:13;;;;;;;;;;;25.00;48.40;;;;;;1628639;71;750;-58
2023/07/05 04:13:15;;;;;;;;;;;25.00;48.40;;;;;;1627970;71;712;-58
2023/07/05 04:15:17;;;;;;;;;;;25.00;48.40;;;;;;1619327;71;781;-59
2023/07/05 04:17:19;;;;;;;;;;;25.00;48.50;;;;;;1645631;71;1393;-59
2023/07/05 04:19:21;;;;;;;;;;;25.00;48.60;;;;;;1611220;71;1124;-59
2023/07/05 04:21:23;;;;;;;;;;;25.00;48.40;;;;;;1642956;71;727;-59
2023/07/05 04:23:25;;;;;;;;;;;25.00;48.60;;;;;;1642228;71;820;-59
2023/07/05 04:25:26;;;;;;;;;;;25.00;48.50;;;;;;1624798;71;1934;-60
2023/07/05 04:27:28;;;;;;;;;;;25.00;48.40;;;;;;1610174;71;784;-58
2023/07/05 04:29:30;;;;;;;;;;;25.00;48.30;;;;;;1614052;71;1190;-58
2023/07/05 04:31:32;;;;;;;;;;;25.00;48.30;;;;;;1634055;71;1303;-59
2023/07/05 04:33:34;;;;;;;;;;;25.00;48.40;;;;;;1637901;71;790;-60
2023/07/05 04:35:36;;;;;;;;;;;25.00;48.50;;;;;;1627247;71;725;-59
2023/07/05 04:37:38;;;;;;;;;;;25.00;48.60;;;;;;1647052;71;675;-59
2023/07/05 04:39:40;;;;;;;;;;;25.00;48.60;;;;;;1614991;71;1126;-58
2023/07/05 04:41:42;;;;;;;;;;;25.00;48.50;;;;;;1636923;71;706;-58
2023/07/05 04:43:44;;;;;;;;;;;25.00;48.60;;;;;;1616498;71;578;-59
2023/07/05 04:45:50;;;;;;;;;;;24.90;48.70;;;;;;1627492;71;1921;-59
2023/07/05 04:47:52;;;;;;;;;;;24.90;48.60;;;;;;1641996;71;1726;-58
2023/07/05 04:49:54;;;;;;;;;;;25.00;48.30;;;;;;1634255;70;1092;-59
2023/07/05 04:51:56;;;;;;;;;;;25.00;48.30;;;;;;1626325;71;877;-59
2023/07/05 04:53:58;;;;;;;;;;;25.00;48.20;;;;;;1623778;71;801;-59
2023/07/05 04:56:00;;;;;;;;;;;24.90;48.10;;;;;;1638488;71;695;-59
2023/07/05 04:58:03;;;;;;;;;;;24.90;48.10;;;;;;1619692;70;1133;-59
2023/07/05 05:00:06;;;;;;;;;;;24.90;47.70;;;;;;1645346;71;1552;-58
2023/07/05 05:02:09;;;;;;;;;;;24.90;47.60;;;;;;1632836;71;692;-58
2023/07/05 05:04:11;;;;;;;;;;;25.00;47.60;;;;;;1614703;71;728;-58
2023/07/05 05:06:13;;;;;;;;;;;25.00;47.20;;;;;;1634142;71;1926;-60
2023/07/05 05:08:15;;;;;;;;;;;25.00;47.60;;;;;;1622251;71;1099;-60
2023/07/05 05:10:17;;;;;;;;;;;24.90;47.30;;;;;;1623617;71;576;-61
2023/07/05 05:12:19;;;;;;;;;;;24.80;46.40;;;;;;1625362;71;788;-60
2023/07/05 05:14:20;;;;;;;;;;;24.80;45.50;;;;;;1630060;71;1294;-58
2023/07/05 05:16:22;;;;;;;;;;;24.80;44.90;;;;;;1631203;71;734;-58
2023/07/05 05:18:25;;;;;;;;;;;24.80;44.70;;;;;;1623874;71;1148;-60
2023/07/05 05:20:27;;;;;;;;;;;24.70;44.70;;;;;;1620373;71;723;-58
2023/07/05 05:22:29;;;;;;;;;;;24.70;44.70;;;;;;1632463;71;1037;-60
2023/07/05 05:24:31;;;;;;;;;;;24.60;44.90;;;;;;1622969;71;770;-60
2023/07/05 05:26:32;;;;;;;;;;;24.60;45.10;;;;;;1638069;71;1931;-59
2023/07/05 05:28:34;;;;;;;;;;;24.60;45.20;;;;;;1622936;71;1559;-58
2023/07/05 05:30:36;;;;;;;;;;;24.50;45.50;;;;;;1635392;71;681;-60
2023/07/05 05:32:38;;;;;;;;;;;24.60;45.70;;;;;;1640097;71;764;-59
2023/07/05 05:34:40;;;;;;;;;;;24.50;45.90;;;;;;1639240;71;764;-58
2023/07/05 05:36:42;;;;;;;;;;;24.50;46.10;;;;;;1616417;71;710;-59
2023/07/05 05:38:44;;;;;;;;;;;24.50;46.30;;;;;;1633838;70;1109;-58
2023/07/05 05:40:48;;;;;;;;;;;24.50;46.50;;;;;;1652038;71;794;-58
2023/07/05 05:42:49;;;;;;;;;;;24.50;46.60;;;;;;1641378;71;1335;-59
2023/07/05 05:44:51;;;;;;;;;;;24.50;46.80;;;;;;1642030;71;712;-58
2023/07/05 05:46:53;;;;;;;;;;;24.50;46.80;;;;;;1616542;71;1925;-59
2023/07/05 05:48:55;;;;;;;;;;;24.40;46.80;;;;;;1619308;71;1138;-60
2023/07/05 05:50:57;;;;;;;;;;;24.40;47.00;;;;;;1617880;71;738;-58
2023/07/05 05:52:59;;;;;;;;;;;24.50;47.10;;;;;;1624012;71;795;-59
2023/07/05 05:55:01;;;;;;;;;;;24.50;47.30;;;;;;1633990;71;669;-59
2023/07/05 05:57:02;;;;;;;;;;;24.40;47.20;;;;;;1640600;71;1523;-57
2023/07/05 05:59:04;;;;;;;;;;;24.40;47.20;;;;;;1637823;71;1147;-59
2023/07/05 06:01:06;;;;;;;;;;;24.50;47.30;;;;;;1627804;71;628;-59
2023/07/05 06:03:08;;;;;;;;;;;24.40;47.20;;;;;;1627155;71;752;-58
2023/07/05 06:05:11;;;;;;;;;;;24.50;47.20;;;;;;1634584;71;776;-58
2023/07/05 06:07:12;;;;;;;;;;;24.40;47.20;;;;;;1644297;71;1927;-59
2023/07/05 06:09:14;;;;;;;;;;;24.40;47.40;;;;;;1634855;70;1136;-59
2023/07/05 06:11:16;;;;;;;;;;;24.50;47.60;;;;;;1629830;71;1462;-59
2023/07/05 06:13:18;;;;;;;;;;;24.50;47.60;;;;;;1637609;71;704;-59
2023/07/05 06:15:20;;;;;;;;;;;24.50;47.60;;;;;;1626382;71;696;-58
2023/07/05 06:17:22;;;;;;;;;;;24.50;47.80;;;;;;1606483;71;670;-59
2023/07/05 06:19:24;;;;;;;;;;;24.50;47.80;;;;;;1617621;71;1136;-59
2023/07/05 06:21:25;;;;;;;;;;;24.50;47.80;;;;;;1636879;71;667;-59
2023/07/05 06:23:27;;;;;;;;;;;24.50;47.90;;;;;;1633742;71;821;-58
2023/07/05 06:25:30;;;;;;;;;;;24.50;47.90;;;;;;1620811;71;1563;-58
2023/07/05 06:27:33;;;;;;;;;;;24.50;47.90;;;;;;1642276;71;1904;-59
2023/07/05 06:29:34;;;;;;;;;;;24.50;48.00;;;;;;1630920;71;1141;-59
2023/07/05 06:31:36;;;;;;;;;;;24.50;48.10;;;;;;1624387;71;722;-59
2023/07/05 06:33:39;;;;;;;;;;;24.50;48.10;;;;;;1614876;71;618;-59
2023/07/05 06:35:41;;;;;;;;;;;24.50;48.20;;;;;;1636060;71;564;-59
2023/07/05 06:37:43;;;;;;;;;;;24.50;48.30;;;;;;1622258;71;743;-59
2023/07/05 06:39:44;;;;;;;;;;;24.50;48.30;;;;;;1645446;70;1639;-59
2023/07/05 06:41:46;;;;;;;;;;;24.50;48.40;;;;;;1639802;71;721;-59
2023/07/05 06:43:48;;;;;;;;;;;24.50;48.40;;;;;;1627072;71;854;-60
2023/07/05 06:45:50;;;;;;;;;;;24.50;48.30;;;;;;1622458;71;581;-58
2023/07/05 06:47:52;;;;;;;;;;;24.50;48.30;;;;;;1625362;71;1924;-58
2023/07/05 06:49:54;;;;;;;;;;;24.50;48.30;;;;;;1620005;70;1096;-59
2023/07/05 06:51:56;;;;;;;;;;;24.50;48.40;;;;;;1640851;71;736;-58
2023/07/05 06:53:58;;;;;;;;;;;24.50;48.40;;;;;;1637204;71;1677;-59
2023/07/05 06:56:00;;;;;;;;;;;24.50;48.50;;;;;;1631411;71;813;-59
2023/07/05 06:58:02;;;;;;;;;;;24.50;48.50;;;;;;1613314;71;1125;-59
2023/07/05 07:00:06;;;;;;;;;;;24.50;48.40;;;;;;1623911;71;735;-59
2023/07/05 07:02:08;;;;;;;;;;;24.50;48.40;;;;;;1629841;71;1651;-59
2023/07/05 07:04:10;;;;;;;;;;;24.50;48.50;;;;;;1641592;71;793;-59
2023/07/05 07:06:12;;;;;;;;;;;24.50;48.60;;;;;;1623634;71;1904;-60
2023/07/05 07:08:14;;;;;;;;;;;24.50;48.60;;;;;;1625674;71;1146;-59
2023/07/05 07:10:16;;;;;;;;;;;24.50;48.70;;;;;;1629237;71;718;-59
2023/07/05 07:12:17;;;;;;;;;;;24.50;48.50;;;;;;1645649;71;793;-59
2023/07/05 07:14:19;;;;;;;;;;;24.40;48.40;;;;;;1639835;71;747;-59
2023/07/05 07:16:21;;;;;;;;;;;24.50;48.60;;;;;;1630772;71;797;-60
2023/07/05 07:18:24;;;;;;;;;;;24.40;48.40;;;;;;1642958;70;1151;-59
2023/07/05 07:20:26;;;;;;;;;;;24.40;48.60;;;;;;1628368;71;1219;-60
2023/07/05 07:22:28;;;;;;;;;;;24.50;48.80;;;;;;1610839;71;792;-58
2023/07/05 07:24:29;;;;;;;;;;;24.50;48.90;;;;;;1629385;71;774;-60
2023/07/05 07:26:31;;;;;;;;;;;24.50;48.60;;;;;;1629615;71;1931;-59
2023/07/05 07:28:33;;;;;;;;;;;24.50;48.90;;;;;;1629197;70;1120;-59
2023/07/05 07:30:35;;;;;;;;;;;24.50;48.90;;;;;;1629375;71;669;-59
2023/07/05 07:32:37;;;;;;;;;;;24.50;49.20;;;;;;1621054;71;780;-63
2023/07/05 07:34:40;;;;;;;;;;;24.60;49.20;;;;;;1628878;71;1578;-61
2023/07/05 07:36:42;;;;;;;;;;;24.60;48.60;;;;;;1619393;71;802;-59
2023/07/05 07:38:44;;;;;;;;;;;24.70;48.70;;;;;;1641882;70;1148;-59
2023/07/05 07:40:45;;;;;;;;;;;24.60;48.70;;;;;;1630464;71;923;-59
2023/07/05 07:42:47;;;;;;;;;;;24.70;49.20;;;;;;1643460;71;746;-59
2023/07/05 07:44:49;;;;;;;;;;;24.60;49.20;;;;;;1637218;71;1360;-60
2023/07/05 07:46:51;;;;;;;;;;;24.50;49.40;;;;;;1630487;71;1907;-60
2023/07/05 07:48:55;;;;;;;;;;;24.50;49.40;;;;;;1636192;71;1338;-60
2023/07/05 07:50:56;;;;;;;;;;;24.50;49.60;;;;;;1626231;71;743;-58
2023/07/05 07:52:58;;;;;;;;;;;24.50;49.60;;;;;;1631249;71;804;-59
2023/07/05 07:55:00;;;;;;;;;;;24.40;49.40;;;;;;1627441;71;753;-58
2023/07/05 07:57:02;;;;;;;;;;;24.40;49.40;;;;;;1627615;71;770;-60
2023/07/05 07:59:08;;;;;;;;;;;24.50;49.40;;;;;;1615939;71;1134;-59
2023/07/05 08:01:11;;;;;;;;;;;24.50;49.30;;;;;;1628206;71;1310;-59
2023/07/05 08:03:13;;;;;;;;;;;24.50;49.40;;;;;;1615678;71;1523;-58
2023/07/05 08:05:16;;;;;;;;;;;24.50;49.50;;;;;;1623846;71;724;-59
2023/07/05 08:07:17;;;;;;;;;;;24.40;49.70;;;;;;1643892;71;1928;-59
2023/07/05 08:09:23;;;;;;;;;;;24.40;49.60;;;;;;1613920;71;1170;-59
2023/07/05 08:11:25;;;;;;;;;;;24.50;49.70;;;;;;1620477;71;717;-60
2023/07/05 08:13:27;;;;;;;;;;;24.40;49.70;;;;;;1613753;71;581;-58
2023/07/05 08:15:29;;;;;;;;;;;24.40;49.70;;;;;;1628705;71;714;-60
2023/07/05 08:17:30;;;;;;;;;;;24.40;49.70;;;;;;1620241;71;1316;-59
2023/07/05 08:19:32;;;;;;;;;;;24.30;49.70;;;;;;1644659;70;1147;-59
2023/07/05 08:21:36;;;;;;;;;;;24.30;49.60;;;;;;1645351;71;717;-60
2023/07/05 08:23:38;;;;;;;;;;;24.40;49.50;;;;;;1636214;71;947;-59
2023/07/05 08:25:42;;;;;;;;;;;24.40;49.30;;;;;;1631591;71;803;-59
2023/07/05 08:27:44;;;;;;;;;;;24.40;49.50;;;;;;1627032;71;1939;-59
2023/07/05 08:29:45;;;;;;;;;;;24.40;49.60;;;;;;1638587;70;1073;-59
2023/07/05 08:31:48;;;;;;;;;;;24.40;49.60;;;;;;1614701;71;1511;-59
2023/07/05 08:33:50;;;;;;;;;;;24.40;49.50;;;;;;1644288;71;794;-59
2023/07/05 08:35:54;;;;;;;;;;;24.30;49.60;;;;;;1646556;71;675;-59
2023/07/05 08:37:56;;;;;;;;;;;24.30;49.50;;;;;;1627483;71;1937;-58
2023/07/05 08:39:58;;;;;;;;;;;24.40;49.60;;;;;;1625741;71;1138;-59
2023/07/05 08:42:18;;;;;;;;;;;24.30;49.40;;;;;;1607626;71;785;-59
2023/07/05 08:44:24;;;;;;;;;;;24.30;49.60;;;;;;1626005;71;814;-59
2023/07/05 08:46:26;;;;;;;;;;;24.20;49.40;;;;;;1623536;71;1935;-60
2023/07/05 08:48:28;;;;;;;;;;;24.30;49.50;;;;;;1634938;71;1939;-59
2023/07/05 08:50:34;;;;;;;;;;;24.40;49.50;;;;;;1604204;73;701;-59
2023/07/05 08:52:38;;;;;;;;;;;24.30;49.60;;;;;;1625804;71;777;-60
2023/07/05 08:54:40;;;;;;;;;;;24.30;49.50;;;;;;1643198;71;1861;-60
2023/07/05 08:56:43;;;;;;;;;;;24.30;49.40;;;;;;1624440;71;724;-59
2023/07/05 08:58:56;;;;;;;;;;;24.30;49.20;;;;;;1623072;71;1716;-60
2023/07/05 09:00:57;;;;;;;;;;;24.40;49.30;;;;;;1624895;71;1629;-59
2023/07/05 09:02:59;;;;;;;;;;;24.20;49.10;;;;;;1639831;71;727;-59
2023/07/05 09:05:04;;;;;;;;;;;24.30;49.30;;;;;;1624547;71;782;-60
2023/07/05 09:07:07;;;;;;;;;;;24.30;49.40;;;;;;1619862;71;1905;-58
2023/07/05 09:09:10;;;;;;;;;;;24.30;49.70;;;;;;1620311;71;1916;-59
2023/07/05 09:11:13;;;;;;;;;;;24.40;50.30;;;;;;1634049;71;745;-59
2023/07/05 09:13:16;;;;;;;;;;;24.30;50.10;;;;;;1618876;71;1281;-59
2023/07/05 09:15:23;;;;;;;;;;;24.40;50.00;;;;;;1619228;71;653;-59
2023/07/05 09:17:45;;;;;;;;;;;24.40;50.40;;;;;;1633775;71;1817;-59
2023/07/05 09:19:52;;;;;;;;;;;24.40;50.20;;;;;;1626385;71;1484;-59
2023/07/05 09:21:55;;;;;;;;;;;24.50;50.40;;;;;;1631588;71;1737;-59
2023/07/05 09:23:59;;;;;;;;;;;24.50;50.20;;;;;;1625762;71;749;-58
2023/07/05 09:26:03;;;;;;;;;;;24.50;49.90;;;;;;1640732;71;1918;-58
2023/07/05 09:28:09;;;;;;;;;;;24.50;50.20;;;;;;1634530;70;1927;-58
2023/07/05 09:30:13;;;;;;;;;;;24.50;49.80;;;;;;1640630;71;1986;-58
2023/07/05 09:32:17;;;;;;;;;;;24.60;49.70;;;;;;1619817;71;710;-58
2023/07/05 09:34:21;;;;;;;;;;;24.60;49.70;;;;;;1623740;71;686;-57
2023/07/05 09:36:23;;;;;;;;;;;24.60;49.50;;;;;;1633515;71;2050;-57
2023/07/05 09:38:33;;;;;;;;;;;24.60;49.80;;;;;;1623628;71;1154;-57
2023/07/05 09:42:39;;;;;;;;;;;24.50;50.00;;;;;;1609217;72;1412;-60
2023/07/05 09:44:41;;;;;;;;;;;24.50;50.00;;;;;;1585290;73;1397;-60
2023/07/05 09:46:43;;;;;;;;;;;24.50;50.20;;;;;;1598083;73;719;-58
2023/07/05 09:48:46;;;;;;;;;;;24.40;50.10;;;;;;1588942;73;1223;-59
2023/07/05 09:50:49;;;;;;;;;;;24.50;50.00;;;;;;1585575;74;799;-58
2023/07/05 09:52:52;;;;;;;;;;;24.50;49.90;;;;;;1573085;74;580;-60
2023/07/05 09:54:55;;;;;;;;;;;24.50;49.80;;;;;;1582392;74;1517;-60
2023/07/05 09:56:58;;;;;;;;;;;24.40;49.70;;;;;;1580416;74;1843;-59
2023/07/05 09:59:10;;;;;;;;;;;24.40;49.60;;;;;;1574156;73;1087;-60
2023/07/05 10:01:14;;;;;;;;;;;24.50;49.60;;;;;;1575845;74;1933;-59
2023/07/05 10:03:16;;;;;;;;;;;24.40;49.20;;;;;;1576788;74;1733;-60
2023/07/05 10:05:19;;;;;;;;;;;24.40;49.20;;;;;;1532633;76;1126;-60
2023/07/05 10:07:22;;;;;;;;;;;24.30;49.10;;;;;;1564301;74;1934;-60
2023/07/05 10:09:24;;;;;;;;;;;24.40;49.00;;;;;;1587185;74;1520;-59
2023/07/05 10:11:27;;;;;;;;;;;24.30;49.10;;;;;;1579938;74;696;-60
2023/07/05 10:13:29;;;;;;;;;;;24.30;49.20;;;;;;1581483;74;731;-61
2023/07/05 10:15:31;;;;;;;;;;;24.30;49.80;;;;;;1548985;76;731;-60
2023/07/05 10:17:40;;;;;;;;;;;24.30;49.80;;;;;;1578526;74;734;-60
2023/07/05 10:19:44;;;;;;;;;;;24.30;49.80;;;;;;1573579;74;1102;-61
2023/07/05 10:21:47;;;;;;;;;;;24.30;49.60;;;;;;1576902;74;1984;-65
2023/07/05 10:23:49;;;;;;;;;;;24.30;49.70;;;;;;1569004;74;1488;-59
2023/07/05 10:25:52;;;;;;;;;;;24.30;49.50;;;;;;1576524;74;756;-59
2023/07/05 10:27:53;;;;;;;;;;;24.50;49.50;;;;;;1580816;74;957;-59
2023/07/05 10:30:13;;;;;;;;;;;24.50;49.60;;;;;;1563884;74;1138;-60
2023/07/05 10:32:19;;;;;;;;;;;24.50;49.70;;;;;;1570455;74;1803;-60
2023/07/05 10:34:23;;;;;;;;;;;24.50;50.00;;;;;;1585562;74;726;-58
2023/07/05 10:36:25;;;;;;;;;;;24.50;50.20;;;;;;1582169;74;817;-62
2023/07/05 10:38:27;;;;;;;;;;;24.30;50.20;;;;;;1576224;74;1520;-59
2023/07/05 10:40:29;;;;;;;;;;;24.40;50.30;;;;;;1572781;74;720;-59
2023/07/05 10:42:32;;;;;;;;;;;24.30;50.20;;;;;;1543512;76;1901;-60
2023/07/05 10:44:39;;;;;;;;;;;24.30;50.10;;;;;;1575534;74;665;-59
2023/07/05 10:46:40;;;;;;;;;;;24.20;50.00;;;;;;1567712;74;1696;-59
2023/07/05 10:48:43;;;;;;;;;;;24.20;50.00;;;;;;1583345;74;1194;-60
2023/07/05 10:50:45;;;;;;;;;;;24.10;50.20;;;;;;1568604;73;798;-60
2023/07/05 10:52:48;;;;;;;;;;;24.10;50.60;;;;;;1571151;74;1549;-59
2023/07/05 10:54:53;;;;;;;;;;;24.00;50.20;;;;;;1579595;74;787;-60
2023/07/05 10:56:55;;;;;;;;;;;23.90;50.30;;;;;;1568212;74;718;-59
2023/07/05 10:58:58;;;;;;;;;;;23.90;50.50;;;;;;1584051;73;1143;-59
2023/07/05 11:01:01;;;;;;;;;;;23.90;50.50;;;;;;1566410;73;1620;-60
2023/07/05 11:03:17;;;;;;;;;;;23.90;50.20;;;;;;1580292;74;731;-60
2023/07/05 11:05:29;;;;;;;;;;;23.80;49.90;;;;;;1575767;73;1509;-59
2023/07/05 11:07:31;;;;;;;;;;;23.70;50.10;;;;;;1567906;74;1067;-59
2023/07/05 11:09:36;;;;;;;;;;;23.80;50.20;;;;;;1578194;74;1145;-59
2023/07/05 11:11:38;;;;;;;;;;;23.60;50.20;;;;;;1576847;74;1101;-60
2023/07/05 11:13:40;;;;;;;;;;;23.60;50.30;;;;;;1580886;74;1806;-59
2023/07/05 11:15:42;;;;;;;;;;;23.80;50.10;;;;;;1576512;74;579;-59
2023/07/05 11:17:46;;;;;;;;;;;23.90;49.80;;;;;;1585346;74;570;-59
2023/07/05 11:19:48;;;;;;;;;;;24.10;49.50;;;;;;1568707;74;1568;-60
2023/07/05 11:21:50;;;;;;;;;;;24.20;49.20;;;;;;1570055;74;1935;-60
2023/07/05 11:23:52;;;;;;;;;;;24.30;49.00;;;;;;1576582;74;737;-60
2023/07/05 11:25:58;;;;;;;;;;;24.30;49.00;;;;;;1577175;74;794;-59
2023/07/05 11:28:00;;;;;;;;;;;24.40;48.80;;;;;;1568545;74;760;-59
2023/07/05 11:30:03;;;;;;;;;;;24.40;49.00;;;;;;1588023;74;1192;-60
2023/07/05 11:32:08;;;;;;;;;;;24.40;48.90;;;;;;1573214;74;960;-59
2023/07/05 11:34:27;;;;;;;;;;;24.50;48.80;;;;;;1575455;74;1547;-59
2023/07/05 11:36:29;;;;;;;;;;;24.50;48.60;;;;;;1579234;74;1624;-60
2023/07/05 11:38:40;;;;;;;;;;;24.60;48.00;;;;;;1570082;74;1079;-60
2023/07/05 11:40:46;;;;;;;;;;;24.60;47.90;;;;;;1565356;74;786;-59
2023/07/05 11:42:48;;;;;;;;;;;24.70;47.90;;;;;;1554432;75;1932;-59
2023/07/05 11:44:50;;;;;;;;;;;24.70;47.80;;;;;;1573449;75;718;-59
2023/07/05 11:46:53;;;;;;;;;;;24.70;47.60;;;;;;1573136;75;800;-59
2023/07/05 11:48:55;;;;;;;;;;;24.70;47.60;;;;;;1567798;75;1586;-59
2023/07/05 11:50:57;;;;;;;;;;;24.70;47.30;;;;;;1564333;74;676;-60
2023/07/05 11:53:00;;;;;;;;;;;24.80;47.50;;;;;;1564341;75;806;-59
2023/07/05 11:55:13;;;;;;;;;;;24.80;47.60;;;;;;1570906;74;730;-59
2023/07/05 11:57:15;;;;;;;;;;;24.80;47.30;;;;;;1564168;74;689;-60
2023/07/05 11:59:16;;;;;;;;;;;24.90;47.40;;;;;;1559488;74;1151;-59
2023/07/05 12:01:20;;;;;;;;;;;24.90;47.30;;;;;;1563650;75;751;-60
2023/07/05 12:03:25;;;;;;;;;;;24.90;47.30;;;;;;1563823;75;1882;-60
2023/07/05 12:05:28;;;;;;;;;;;24.90;47.40;;;;;;1567690;75;709;-60
2023/07/05 12:07:30;;;;;;;;;;;24.80;47.80;;;;;;1564949;75;743;-59
2023/07/05 12:09:34;;;;;;;;;;;24.80;47.70;;;;;;1566250;75;1278;-60
2023/07/05 12:11:37;;;;;;;;;;;24.80;47.80;;;;;;1566451;75;963;-59
2023/07/05 12:13:39;;;;;;;;;;;24.80;47.90;;;;;;1567992;75;720;-59
2023/07/05 12:15:42;;;;;;;;;;;24.80;47.90;;;;;;1559693;75;1502;-59
2023/07/05 12:17:44;;;;;;;;;;;24.80;47.80;;;;;;1569028;74;692;-59
2023/07/05 12:19:45;;;;;;;;;;;24.80;47.70;;;;;;1567144;75;1121;-59